Artie, West Virginia
Current Conditions -  °F | °C
As of 1:51 PM on Thursday 23 Oct 2014 (Local Time) from KBKW Reporting Station
Overcast Overcast  
Wind Chill: 43°   Ceiling: 2000
Heat Index: 48°   Visibility: 10mi
Dew Point: 39°   Wind: 13mph
Humidity: 71%   Direction: 340°NNW
Pressure: 30.13"   Gusts: NA
Location:  37.93°N, 81.36°W
Report Text: KBKW 231751Z AUTO 34011KT 10SM OVC020 09/04 A3013 RMK AO2 SLP210 T00890039 10094 20056 58013 TSNO
Loading
Personal Weather Stations






























Interactive Weather Map
Tropical Storm Tracking
New forecast layout! Learn more

10-Day Weather Forecast

Advertisements
Track Severe Weather on mobile